createdAt,value
2022-12-23T00:00:26.251Z,9.19
2022-12-23T00:02:53.006Z,9.14
2022-12-23T00:05:19.819Z,9.12
2022-12-23T00:07:46.495Z,9.15
2022-12-23T00:10:13.142Z,9.19
2022-12-23T00:12:58.208Z,9.11
2022-12-23T00:15:24.751Z,9.12
2022-12-23T00:17:51.478Z,9.19
2022-12-23T00:20:17.963Z,9.24
2022-12-23T00:23:03.350Z,9.17
2022-12-23T00:25:42.401Z,9.18
2022-12-23T00:28:18.155Z,9.22
2022-12-23T00:30:59.549Z,9.17
2022-12-23T00:33:32.984Z,9.20
2022-12-23T00:36:00.771Z,9.26
2022-12-23T00:38:46.606Z,9.22
2022-12-23T00:41:36.098Z,9.10
2022-12-23T00:44:05.160Z,9.06
2022-12-23T00:46:32.082Z,9.09
2022-12-23T00:49:17.230Z,9.11
2022-12-23T00:51:43.709Z,9.11
2022-12-23T00:54:10.287Z,9.15
2022-12-23T00:56:36.801Z,9.20
2022-12-23T00:59:03.646Z,9.21
2022-12-23T01:01:48.948Z,9.27
2022-12-23T01:04:36.525Z,9.24
2022-12-23T01:07:04.299Z,9.22
2022-12-23T01:09:30.769Z,9.19
2022-12-23T01:11:57.312Z,9.21
2022-12-23T01:14:24.821Z,9.25
2022-12-23T01:16:51.449Z,9.21
2022-12-23T01:19:18.442Z,9.23
2022-12-23T01:21:45.164Z,9.26
2022-12-23T01:24:12.171Z,9.22
2022-12-23T01:26:38.818Z,9.18
2022-12-23T01:29:05.418Z,9.21
2022-12-23T01:31:31.984Z,9.21
2022-12-23T01:33:58.497Z,9.16
2022-12-23T01:36:25.067Z,9.15
2022-12-23T01:38:52.257Z,9.20
2022-12-23T01:41:46.755Z,9.16
2022-12-23T01:44:55.646Z,9.10
2022-12-23T01:47:42.002Z,9.14
2022-12-23T01:50:21.666Z,9.19
2022-12-23T01:53:11.129Z,9.20
2022-12-23T01:55:49.675Z,9.16
2022-12-23T01:58:36.441Z,9.13
2022-12-23T02:01:22.379Z,9.17
2022-12-23T02:03:53.193Z,9.21
2022-12-23T02:06:49.206Z,9.14
2022-12-23T02:09:29.265Z,9.11
2022-12-23T02:12:47.127Z,9.07
2022-12-23T02:15:47.353Z,9.11
2022-12-23T02:18:54.327Z,9.04
2022-12-23T02:21:31.233Z,9.01
2022-12-23T02:24:39.419Z,8.94
2022-12-23T02:27:18.895Z,8.90
2022-12-23T02:30:25.848Z,8.97
2022-12-23T02:33:15.443Z,8.89
2022-12-23T02:36:08.585Z,8.94
2022-12-23T02:38:59.783Z,8.99
2022-12-23T02:41:41.127Z,8.95
2022-12-23T02:44:33.397Z,8.86
2022-12-23T02:47:17.616Z,8.90
2022-12-23T02:49:51.569Z,8.88
2022-12-23T02:52:23.973Z,8.86
2022-12-23T02:54:57.935Z,8.95
2022-12-23T02:57:43.958Z,8.97
2022-12-23T03:00:12.963Z,9.06
2022-12-23T03:02:41.648Z,9.14
2022-12-23T03:05:41.483Z,9.06
2022-12-23T03:08:16.855Z,9.16
2022-12-23T03:10:58.095Z,9.15
2022-12-23T03:14:05.265Z,9.05
2022-12-23T03:17:19.676Z,9.04
2022-12-23T03:19:58.758Z,9.10
2022-12-23T03:23:07.982Z,9.13
2022-12-23T03:26:03.418Z,9.07
2022-12-23T03:28:51.719Z,9.04
2022-12-23T03:31:27.334Z,8.98
2022-12-23T03:34:05.354Z,8.99
2022-12-23T03:36:56.099Z,8.85
2022-12-23T03:39:32.952Z,8.97
2022-12-23T03:42:20.827Z,9.05
2022-12-23T03:45:19.696Z,9.02
2022-12-23T03:47:55.438Z,8.92
2022-12-23T03:50:25.263Z,8.83
2022-12-23T03:53:02.408Z,8.85
2022-12-23T03:55:46.900Z,8.98
2022-12-23T03:58:31.633Z,8.77
2022-12-23T04:01:31.240Z,8.77
2022-12-23T04:04:11.147Z,8.71
2022-12-23T04:06:56.480Z,8.90
2022-12-23T04:09:27.491Z,8.86
2022-12-23T04:11:54.709Z,8.91
2022-12-23T04:14:22.795Z,8.87
2022-12-23T04:16:56.011Z,8.84
2022-12-23T04:19:22.536Z,8.90
2022-12-23T04:21:49.128Z,8.93
2022-12-23T04:24:15.680Z,8.92
2022-12-23T04:26:42.174Z,8.87
2022-12-23T04:29:08.651Z,8.78
2022-12-23T04:31:35.200Z,8.92
2022-12-23T04:34:01.750Z,8.86
2022-12-23T04:36:28.254Z,8.48
2022-12-23T04:38:54.784Z,8.66
2022-12-23T04:41:21.561Z,8.75
2022-12-23T04:43:52.946Z,8.55
2022-12-23T04:46:20.093Z,8.74
2022-12-23T04:48:46.658Z,8.82
2022-12-23T04:51:13.168Z,8.76
2022-12-23T04:53:39.613Z,8.80
2022-12-23T04:56:06.258Z,8.85
2022-12-23T04:58:32.763Z,8.88
2022-12-23T05:01:11.696Z,8.84
2022-12-23T05:03:39.549Z,8.85
2022-12-23T05:06:06.882Z,8.91
2022-12-23T05:08:33.822Z,8.96
2022-12-23T05:11:00.818Z,8.96
2022-12-23T05:13:27.342Z,8.98
2022-12-23T05:15:55.138Z,8.95
2022-12-23T05:18:22.764Z,8.87
2022-12-23T05:20:50.929Z,8.78
2022-12-23T05:23:17.523Z,8.78
2022-12-23T05:25:49.931Z,8.87
2022-12-23T05:28:16.401Z,8.89
2022-12-23T05:30:43.394Z,8.93
2022-12-23T05:33:09.885Z,8.94
2022-12-23T05:35:36.389Z,8.50
2022-12-23T05:38:03.312Z,8.73
2022-12-23T05:40:32.400Z,8.82
2022-12-23T05:43:00.586Z,8.76
2022-12-23T05:45:27.078Z,8.82
2022-12-23T05:47:53.570Z,8.94
2022-12-23T05:50:20.028Z,8.90
2022-12-23T05:52:46.496Z,8.89
2022-12-23T05:55:12.997Z,8.92
2022-12-23T05:57:39.495Z,8.97
2022-12-23T06:00:06.982Z,9.01
2022-12-23T06:02:33.701Z,9.06
2022-12-23T06:05:00.232Z,9.04
2022-12-23T06:07:26.716Z,8.96
2022-12-23T06:09:53.182Z,8.92
2022-12-23T06:12:19.678Z,8.96
2022-12-23T06:14:46.177Z,8.97
2022-12-23T06:17:12.668Z,8.96
2022-12-23T06:19:39.136Z,8.94
2022-12-23T06:22:05.688Z,9.01
2022-12-23T06:24:32.220Z,9.00
2022-12-23T06:26:58.723Z,9.06
2022-12-23T06:29:25.382Z,8.87
2022-12-23T06:31:51.980Z,8.88
2022-12-23T06:34:18.578Z,8.93
2022-12-23T06:36:45.028Z,9.01
2022-12-23T06:39:11.835Z,9.02
2022-12-23T06:41:38.473Z,8.88
2022-12-23T06:44:05.377Z,8.91
2022-12-23T06:46:32.058Z,8.95
2022-12-23T06:48:58.825Z,8.93
2022-12-23T06:51:25.330Z,8.92
2022-12-23T06:53:51.827Z,8.92
2022-12-23T06:56:18.838Z,8.97
2022-12-23T06:58:45.448Z,8.96
2022-12-23T07:01:12.254Z,8.96
2022-12-23T07:03:39.036Z,8.80
2022-12-23T07:06:06.085Z,8.86
2022-12-23T07:08:32.604Z,8.92
2022-12-23T07:11:01.892Z,8.88
2022-12-23T07:13:28.448Z,8.87
2022-12-23T07:15:55.248Z,8.86
2022-12-23T07:18:23.336Z,8.89
2022-12-23T07:20:51.273Z,8.98
2022-12-23T07:23:17.904Z,9.00
2022-12-23T07:25:44.766Z,9.00
2022-12-23T07:28:11.240Z,9.05
2022-12-23T07:30:37.830Z,9.02
2022-12-23T07:33:04.323Z,9.02
2022-12-23T07:35:30.865Z,9.06
2022-12-23T07:37:57.359Z,9.05
2022-12-23T07:40:25.330Z,9.06
2022-12-23T07:42:58.009Z,8.98
2022-12-23T07:45:29.504Z,9.00
2022-12-23T07:47:59.480Z,8.93
2022-12-23T07:50:27.572Z,9.01
2022-12-23T07:52:54.778Z,9.01
2022-12-23T07:55:21.807Z,9.03
2022-12-23T07:57:50.456Z,9.03
2022-12-23T08:00:18.005Z,9.10
2022-12-23T08:02:44.725Z,9.09
2022-12-23T08:05:12.236Z,9.05
2022-12-23T08:07:39.076Z,9.00
2022-12-23T08:10:07.397Z,8.92
2022-12-23T08:12:34.140Z,8.97
2022-12-23T08:15:00.615Z,9.01
2022-12-23T08:17:30.352Z,9.10
2022-12-23T08:19:57.419Z,9.16
2022-12-23T08:22:24.937Z,9.15
2022-12-23T08:24:52.487Z,9.25
2022-12-23T08:27:19.587Z,9.20
2022-12-23T08:29:46.151Z,9.12
2022-12-23T08:32:12.643Z,9.10
2022-12-23T08:34:39.196Z,9.12
2022-12-23T08:37:05.675Z,9.07
2022-12-23T08:39:32.205Z,9.01
2022-12-23T08:41:58.794Z,8.85
2022-12-23T08:44:27.925Z,8.84
2022-12-23T08:46:55.348Z,8.82
2022-12-23T08:49:22.388Z,8.85
2022-12-23T08:51:49.794Z,8.87
2022-12-23T08:54:17.319Z,8.97
2022-12-23T08:56:43.906Z,8.95
2022-12-23T08:59:19.637Z,8.93
2022-12-23T09:01:47.966Z,9.02
2022-12-23T09:04:15.237Z,9.11
2022-12-23T09:06:43.205Z,9.22
2022-12-23T09:09:13.008Z,9.17
2022-12-23T09:11:39.635Z,9.13
2022-12-23T09:14:08.451Z,9.22
2022-12-23T09:16:35.033Z,9.18
2022-12-23T09:19:01.679Z,9.21
2022-12-23T09:21:29.341Z,9.20
2022-12-23T09:23:55.850Z,9.27
2022-12-23T09:26:29.540Z,9.29
2022-12-23T09:28:57.516Z,9.27
2022-12-23T09:31:27.872Z,9.19
2022-12-23T09:33:59.125Z,9.17
2022-12-23T09:36:25.642Z,9.21
2022-12-23T09:38:57.838Z,9.18
2022-12-23T09:41:42.757Z,9.15
2022-12-23T09:44:19.574Z,9.14
2022-12-23T09:47:02.167Z,9.15
2022-12-23T09:49:29.036Z,9.18
2022-12-23T09:52:02.958Z,9.19
2022-12-23T09:54:48.402Z,9.23
2022-12-23T09:57:25.795Z,9.27
2022-12-23T10:00:10.894Z,9.24
2022-12-23T10:03:06.591Z,9.30
2022-12-23T10:06:17.766Z,9.29
2022-12-23T10:08:58.182Z,9.25
2022-12-23T10:11:49.640Z,9.19
2022-12-23T10:14:23.763Z,9.18
2022-12-23T10:16:56.896Z,9.20
2022-12-23T10:19:41.697Z,9.16
2022-12-23T10:22:26.780Z,9.08
2022-12-23T10:24:58.562Z,9.23
2022-12-23T10:27:37.175Z,9.29
2022-12-23T10:33:31.210Z,9.18
2022-12-23T10:36:15.930Z,9.17
2022-12-23T10:39:33.307Z,9.12
2022-12-23T10:42:40.529Z,9.09
2022-12-23T10:45:36.277Z,9.03
2022-12-23T10:48:37.905Z,9.00
2022-12-23T10:51:23.018Z,9.02
2022-12-23T10:54:02.515Z,9.04
2022-12-23T10:56:30.688Z,9.18
2022-12-23T10:59:01.041Z,9.20
2022-12-23T11:01:31.198Z,9.29
2022-12-23T11:04:18.135Z,9.24
2022-12-23T11:07:10.854Z,9.27
2022-12-23T11:09:43.765Z,9.26
2022-12-23T11:12:13.290Z,9.29
2022-12-23T11:14:56.667Z,9.35
2022-12-23T11:17:33.290Z,9.34
2022-12-23T11:20:26.367Z,9.14
2022-12-23T11:23:02.706Z,9.42
2022-12-23T11:25:40.688Z,9.37
2022-12-23T11:28:10.736Z,9.33
2022-12-23T11:31:12.161Z,9.27
2022-12-23T11:33:49.074Z,9.26
2022-12-23T11:36:23.912Z,9.42
2022-12-23T11:38:57.259Z,9.54
2022-12-23T11:41:27.653Z,9.60
2022-12-23T11:44:01.632Z,9.52
2022-12-23T11:46:33.357Z,9.55
2022-12-23T11:49:26.138Z,9.62
2022-12-23T11:52:12.346Z,9.48
2022-12-23T11:54:39.479Z,9.44
2022-12-23T11:57:16.986Z,9.40
2022-12-23T11:59:49.846Z,9.47
2022-12-23T12:02:30.329Z,9.62
2022-12-23T12:05:15.325Z,9.61
2022-12-23T12:07:46.324Z,9.42
2022-12-23T12:10:21.015Z,9.31
2022-12-23T12:12:55.479Z,9.24
2022-12-23T12:16:13.586Z,9.13
2022-12-23T12:18:42.700Z,9.12
2022-12-23T12:21:23.731Z,9.22
2022-12-23T12:24:14.830Z,9.31
2022-12-23T12:26:43.866Z,9.37
2022-12-23T12:29:51.473Z,9.26
2022-12-23T12:32:48.493Z,9.12
2022-12-23T12:35:44.118Z,9.13
2022-12-23T12:38:27.051Z,9.19
2022-12-23T12:41:16.210Z,9.27
2022-12-23T12:44:00.046Z,9.19
2022-12-23T12:47:44.814Z,9.14
2022-12-23T12:50:16.760Z,9.29
2022-12-23T12:52:44.002Z,9.49
2022-12-23T12:55:29.251Z,9.59
2022-12-23T12:57:55.742Z,9.71
2022-12-23T13:00:24.907Z,9.71
2022-12-23T13:03:19.471Z,9.74
2022-12-23T13:06:51.989Z,9.75
2022-12-23T13:09:58.729Z,9.72
2022-12-23T13:12:45.188Z,9.69
2022-12-23T13:15:22.845Z,9.54
2022-12-23T13:18:33.138Z,9.51
2022-12-23T13:21:07.645Z,9.43
2022-12-23T13:24:06.016Z,9.36
2022-12-23T13:26:54.039Z,9.36
2022-12-23T13:30:06.445Z,9.46
2022-12-23T13:33:04.962Z,9.49
2022-12-23T13:36:06.266Z,9.31
2022-12-23T13:39:11.168Z,9.27
2022-12-23T13:42:05.035Z,9.14
2022-12-23T13:44:35.229Z,9.17
2022-12-23T13:47:28.858Z,9.20
2022-12-23T13:50:17.251Z,9.36
2022-12-23T13:53:17.906Z,9.41
2022-12-23T13:56:17.532Z,9.32
2022-12-23T13:58:49.721Z,9.25
2022-12-23T14:01:16.190Z,9.22
2022-12-23T14:03:43.632Z,9.31
2022-12-23T14:06:25.976Z,9.46
2022-12-23T14:08:55.567Z,9.53
2022-12-23T14:11:30.967Z,9.52
2022-12-23T14:14:02.353Z,9.57
2022-12-23T14:17:00.342Z,9.58
2022-12-23T14:19:51.177Z,9.53
2022-12-23T14:22:43.429Z,9.25
2022-12-23T14:25:59.219Z,9.18
2022-12-23T14:28:37.622Z,9.30
2022-12-23T14:31:05.747Z,9.34
2022-12-23T14:33:38.033Z,9.37
2022-12-23T14:36:23.924Z,9.36
2022-12-23T14:39:12.302Z,9.23
2022-12-23T14:41:49.986Z,9.25
2022-12-23T14:44:43.578Z,9.16
2022-12-23T14:47:32.077Z,9.02
2022-12-23T14:50:39.661Z,9.08
2022-12-23T14:53:27.564Z,8.95
2022-12-23T14:56:22.743Z,9.11
2022-12-23T14:58:52.577Z,9.22
2022-12-23T15:01:58.808Z,9.21
2022-12-23T15:04:40.473Z,9.24
2022-12-23T15:07:33.938Z,9.20
2022-12-23T15:10:09.514Z,9.22
2022-12-23T15:12:45.828Z,9.22
2022-12-23T15:15:17.149Z,9.24
2022-12-23T15:17:44.225Z,9.32
2022-12-23T15:20:10.839Z,9.40
2022-12-23T15:22:39.828Z,9.41
2022-12-23T15:25:33.960Z,9.35
2022-12-23T15:28:03.194Z,9.29
2022-12-23T15:30:45.930Z,9.29
2022-12-23T15:34:00.905Z,9.28
2022-12-23T15:36:10.663Z,9.32
2022-12-23T15:38:39.132Z,9.38
2022-12-23T15:41:16.124Z,9.42
2022-12-23T15:43:44.116Z,9.41
2022-12-23T15:46:29.692Z,9.50
2022-12-23T15:48:57.839Z,9.57
2022-12-23T15:51:58.241Z,9.49
2022-12-23T15:54:33.810Z,9.34
2022-12-23T15:57:03.135Z,9.47
2022-12-23T15:59:37.397Z,9.53
2022-12-23T16:05:44.838Z,9.58
2022-12-23T16:08:15.890Z,9.67
2022-12-23T16:11:15.686Z,9.72
2022-12-23T16:13:59.483Z,9.68
2022-12-23T16:16:41.127Z,9.70
2022-12-23T16:19:36.701Z,9.79
2022-12-23T16:22:33.052Z,9.87
2022-12-23T16:25:14.983Z,9.92
2022-12-23T16:27:50.403Z,9.92
2022-12-23T16:30:25.715Z,9.79
2022-12-23T16:32:57.353Z,9.85
2022-12-23T16:35:33.187Z,9.86
2022-12-23T16:38:13.656Z,9.82
2022-12-23T16:40:41.821Z,9.90
2022-12-23T16:43:08.379Z,9.93
2022-12-23T16:45:36.766Z,9.98
2022-12-23T16:48:20.233Z,9.94
2022-12-23T16:50:46.900Z,10.03
2022-12-23T16:53:14.047Z,10.13
2022-12-23T16:55:46.248Z,10.18
2022-12-23T16:58:16.917Z,10.11
2022-12-23T17:00:44.636Z,10.14
2022-12-23T17:03:17.801Z,10.15
2022-12-23T17:05:45.606Z,10.20
2022-12-23T17:08:12.136Z,10.24
2022-12-23T17:10:42.027Z,10.27
2022-12-23T17:13:13.170Z,10.18
2022-12-23T17:15:39.781Z,10.22
2022-12-23T17:18:14.198Z,10.24
2022-12-23T17:20:43.100Z,10.18
2022-12-23T17:23:27.363Z,10.08
2022-12-23T17:25:54.551Z,10.17
2022-12-23T17:28:22.452Z,10.20
2022-12-23T17:30:55.276Z,10.32
2022-12-23T17:33:29.172Z,10.37
2022-12-23T17:35:56.021Z,10.37
2022-12-23T17:38:23.368Z,10.40
2022-12-23T17:40:50.827Z,10.49
2022-12-23T17:43:18.884Z,10.49
2022-12-23T17:45:45.911Z,10.40
2022-12-23T17:48:20.573Z,10.47
2022-12-23T17:50:49.148Z,10.44
2022-12-23T17:53:18.912Z,10.38
2022-12-23T17:55:46.063Z,10.52
2022-12-23T17:58:13.978Z,10.42
2022-12-23T18:00:40.883Z,10.37
2022-12-23T18:03:22.779Z,10.08
2022-12-23T18:05:54.220Z,10.13
2022-12-23T18:08:25.834Z,10.34
2022-12-23T18:10:52.410Z,10.26
2022-12-23T18:13:20.188Z,10.31
2022-12-23T18:15:47.670Z,10.22
2022-12-23T18:18:26.041Z,10.23
2022-12-23T18:20:57.115Z,10.20
2022-12-23T18:23:28.602Z,10.23
2022-12-23T18:25:56.807Z,10.33
2022-12-23T18:28:24.669Z,10.37
2022-12-23T18:30:55.377Z,10.31
2022-12-23T18:33:22.061Z,10.39
2022-12-23T18:35:50.811Z,10.23
2022-12-23T18:38:18.495Z,10.28
2022-12-23T18:40:45.252Z,10.27
2022-12-23T18:43:22.335Z,10.29
2022-12-23T18:45:53.276Z,10.27
2022-12-23T18:48:20.748Z,10.30
2022-12-23T18:50:47.304Z,10.36
2022-12-23T18:53:24.713Z,10.27
2022-12-23T18:55:53.401Z,10.19
2022-12-23T18:58:21.224Z,10.19
2022-12-23T19:00:50.134Z,10.29
2022-12-23T19:03:27.875Z,10.18
2022-12-23T19:05:56.702Z,10.28
2022-12-23T19:08:27.195Z,10.22
2022-12-23T19:10:55.436Z,10.11
2022-12-23T19:13:22.198Z,10.04
2022-12-23T19:15:48.817Z,9.97
2022-12-23T19:18:18.721Z,10.02
2022-12-23T19:20:47.653Z,9.91
2022-12-23T19:23:15.330Z,9.95
2022-12-23T19:25:49.252Z,10.12
2022-12-23T19:28:21.677Z,9.91
2022-12-23T19:30:48.605Z,9.82
2022-12-23T19:33:15.302Z,9.79
2022-12-23T19:35:42.765Z,9.79
2022-12-23T19:38:10.005Z,9.82
2022-12-23T19:40:36.549Z,9.83
2022-12-23T19:43:03.765Z,9.91
2022-12-23T19:45:30.256Z,9.90
2022-12-23T19:47:56.759Z,9.87
2022-12-23T19:50:23.238Z,9.88
2022-12-23T19:52:50.671Z,9.91
2022-12-23T19:55:17.271Z,9.93
2022-12-23T19:57:43.917Z,9.83
2022-12-23T20:00:11.199Z,9.89
2022-12-23T20:02:37.761Z,9.95
2022-12-23T20:05:04.873Z,9.92
2022-12-23T20:07:31.471Z,9.92
2022-12-23T20:09:57.963Z,9.96
2022-12-23T20:12:26.347Z,9.89
2022-12-23T20:14:52.840Z,10.00
2022-12-23T20:17:19.289Z,10.14
2022-12-23T20:19:46.510Z,10.10
2022-12-23T20:22:14.285Z,10.20
2022-12-23T20:24:40.948Z,10.30
2022-12-23T20:27:11.431Z,10.22
2022-12-23T20:29:39.071Z,10.18
2022-12-23T20:32:05.831Z,10.14
2022-12-23T20:34:38.585Z,10.08
2022-12-23T20:37:06.380Z,9.87
2022-12-23T20:39:33.050Z,9.95
2022-12-23T20:41:59.701Z,10.12
2022-12-23T20:44:35.553Z,10.11
2022-12-23T20:47:04.442Z,10.07
2022-12-23T20:49:31.073Z,10.20
2022-12-23T20:51:57.718Z,10.18
2022-12-23T20:54:31.614Z,10.24
2022-12-23T20:56:59.569Z,10.06
2022-12-23T20:59:26.085Z,10.08
2022-12-23T21:01:52.682Z,10.13
2022-12-23T21:04:19.388Z,10.00
2022-12-23T21:06:45.985Z,9.92
2022-12-23T21:09:14.840Z,10.12
2022-12-23T21:11:45.068Z,10.09
2022-12-23T21:14:13.117Z,10.05
2022-12-23T21:16:40.798Z,9.98
2022-12-23T21:19:16.790Z,9.91
2022-12-23T21:21:43.947Z,9.85
2022-12-23T21:24:11.374Z,9.79
2022-12-23T21:26:38.809Z,9.81
2022-12-23T21:29:08.847Z,9.92
2022-12-23T21:31:38.888Z,9.83
2022-12-23T21:34:06.831Z,9.94
2022-12-23T21:36:38.472Z,10.06
2022-12-23T21:39:07.163Z,10.04
2022-12-23T21:41:41.114Z,9.93
2022-12-23T21:44:08.276Z,9.89
2022-12-23T21:46:35.186Z,9.84
2022-12-23T21:49:02.787Z,9.83
2022-12-23T21:51:40.244Z,9.82
2022-12-23T21:54:09.235Z,9.94
2022-12-23T21:56:36.011Z,10.12
2022-12-23T21:59:07.544Z,10.03
2022-12-23T22:01:34.779Z,10.07
2022-12-23T22:04:01.295Z,9.98
2022-12-23T22:06:32.525Z,10.06
2022-12-23T22:08:59.958Z,10.05
2022-12-23T22:11:31.322Z,10.02
2022-12-23T22:14:00.806Z,9.99
2022-12-23T22:16:30.674Z,9.82
2022-12-23T22:18:59.892Z,9.64
2022-12-23T22:21:30.315Z,9.49
2022-12-23T22:23:57.854Z,9.57
2022-12-23T22:26:28.838Z,9.61
2022-12-23T22:28:58.239Z,9.51
2022-12-23T22:31:39.808Z,9.59
2022-12-23T22:34:11.429Z,9.61
2022-12-23T22:36:38.018Z,9.44
2022-12-23T22:39:05.328Z,9.38
2022-12-23T22:41:33.036Z,9.38
2022-12-23T22:44:00.332Z,9.48
2022-12-23T22:46:27.809Z,9.61
2022-12-23T22:48:54.813Z,9.67
2022-12-23T22:51:28.641Z,9.70
2022-12-23T22:53:58.667Z,9.67
2022-12-23T22:56:26.435Z,9.61
2022-12-23T22:58:53.932Z,9.34
2022-12-23T23:01:25.270Z,9.25
2022-12-23T23:03:59.373Z,9.40
2022-12-23T23:06:37.633Z,9.38
2022-12-23T23:09:07.620Z,9.32
2022-12-23T23:11:34.988Z,9.38
2022-12-23T23:14:01.716Z,9.40
2022-12-23T23:16:29.064Z,9.44
2022-12-23T23:18:55.801Z,9.58
2022-12-23T23:21:22.604Z,9.41
2022-12-23T23:23:49.793Z,9.41
2022-12-23T23:26:17.915Z,9.59
2022-12-23T23:28:48.018Z,9.33
2022-12-23T23:31:41.250Z,9.44
2022-12-23T23:34:01.201Z,9.44
2022-12-23T23:36:27.781Z,9.54
2022-12-23T23:38:54.337Z,9.84
2022-12-23T23:41:23.616Z,9.67
2022-12-23T23:43:51.493Z,9.60
2022-12-23T23:46:18.319Z,9.46
2022-12-23T23:48:44.810Z,9.55
2022-12-23T23:51:12.437Z,9.54
2022-12-23T23:53:38.922Z,9.41
2022-12-23T23:56:08.009Z,9.53
2022-12-23T23:58:36.469Z,9.54
